sensor_id;sensor_type;location;lat;lon;timestamp;temperature;humidity
1383;DHT22;685;47.196;11.880;2023-03-23T00:00:53;9.50;99.90
1383;DHT22;685;47.196;11.880;2023-03-23T00:03:21;9.50;99.90
1383;DHT22;685;47.196;11.880;2023-03-23T00:05:48;9.40;99.90
1383;DHT22;685;47.196;11.880;2023-03-23T00:08:18;9.40;99.90
1383;DHT22;685;47.196;11.880;2023-03-23T00:10:48;9.40;99.90
1383;DHT22;685;47.196;11.880;2023-03-23T00:13:18;9.20;99.90
1383;DHT22;685;47.196;11.880;2023-03-23T00:15:46;9.10;99.90
1383;DHT22;685;47.196;11.880;2023-03-23T00:18:14;9.10;99.90
1383;DHT22;685;47.196;11.880;2023-03-23T00:20:47;9.30;99.90
1383;DHT22;685;47.196;11.880;2023-03-23T00:23:15;9.30;99.90
1383;DHT22;685;47.196;11.880;2023-03-23T00:25:47;9.30;99.90
1383;DHT22;685;47.196;11.880;2023-03-23T00:28:15;9.40;99.90
1383;DHT22;685;47.196;11.880;2023-03-23T00:30:42;9.30;99.90
1383;DHT22;685;47.196;11.880;2023-03-23T00:33:10;8.90;99.90
1383;DHT22;685;47.196;11.880;2023-03-23T00:35:39;8.80;99.90
1383;DHT22;685;47.196;11.880;2023-03-23T00:38:07;8.90;99.90
1383;DHT22;685;47.196;11.880;2023-03-23T00:40:34;9.00;99.90
1383;DHT22;685;47.196;11.880;2023-03-23T00:43:04;8.90;99.90
1383;DHT22;685;47.196;11.880;2023-03-23T00:45:31;9.10;99.90
1383;DHT22;685;47.196;11.880;2023-03-23T00:48:00;8.90;99.90
1383;DHT22;685;47.196;11.880;2023-03-23T00:50:30;8.70;99.90
1383;DHT22;685;47.196;11.880;2023-03-23T00:52:57;8.70;99.90
1383;DHT22;685;47.196;11.880;2023-03-23T00:55:24;8.90;99.90
1383;DHT22;685;47.196;11.880;2023-03-23T00:57:51;9.00;99.90
1383;DHT22;685;47.196;11.880;2023-03-23T01:00:21;9.00;99.90
1383;DHT22;685;47.196;11.880;2023-03-23T01:02:49;8.80;99.90
1383;DHT22;685;47.196;11.880;2023-03-23T01:05:17;8.90;99.90
1383;DHT22;685;47.196;11.880;2023-03-23T01:07:44;8.90;99.90
1383;DHT22;685;47.196;11.880;2023-03-23T01:10:13;8.80;99.90
1383;DHT22;685;47.196;11.880;2023-03-23T01:12:42;8.80;99.90
1383;DHT22;685;47.196;11.880;2023-03-23T01:15:12;8.70;99.90
1383;DHT22;685;47.196;11.880;2023-03-23T01:17:41;8.90;99.90
1383;DHT22;685;47.196;11.880;2023-03-23T01:20:08;8.90;99.90
1383;DHT22;685;47.196;11.880;2023-03-23T01:22:36;9.00;99.90
1383;DHT22;685;47.196;11.880;2023-03-23T01:25:03;9.00;99.90
1383;DHT22;685;47.196;11.880;2023-03-23T01:27:31;9.00;99.90
1383;DHT22;685;47.196;11.880;2023-03-23T01:29:57;9.20;99.90
1383;DHT22;685;47.196;11.880;2023-03-23T01:32:24;8.70;99.90
1383;DHT22;685;47.196;11.880;2023-03-23T01:34:53;8.40;99.90
1383;DHT22;685;47.196;11.880;2023-03-23T01:37:20;8.60;99.90
1383;DHT22;685;47.196;11.880;2023-03-23T01:39:52;8.40;99.90
1383;DHT22;685;47.196;11.880;2023-03-23T01:42:21;8.40;99.90
1383;DHT22;685;47.196;11.880;2023-03-23T01:47:56;8.50;99.90
1383;DHT22;685;47.196;11.880;2023-03-23T01:50:27;8.50;99.90
1383;DHT22;685;47.196;11.880;2023-03-23T01:52:56;8.30;99.90
1383;DHT22;685;47.196;11.880;2023-03-23T01:55:26;8.40;99.90
1383;DHT22;685;47.196;11.880;2023-03-23T01:57:54;8.50;99.90
1383;DHT22;685;47.196;11.880;2023-03-23T02:00:22;8.50;99.90
1383;DHT22;685;47.196;11.880;2023-03-23T02:02:51;8.30;99.90
1383;DHT22;685;47.196;11.880;2023-03-23T02:05:24;8.20;99.90
1383;DHT22;685;47.196;11.880;2023-03-23T02:07:57;8.10;99.90
1383;DHT22;685;47.196;11.880;2023-03-23T02:10:28;8.00;99.90
1383;DHT22;685;47.196;11.880;2023-03-23T02:12:56;8.20;99.90
1383;DHT22;685;47.196;11.880;2023-03-23T02:15:24;8.20;99.90
1383;DHT22;685;47.196;11.880;2023-03-23T02:17:56;8.40;99.90
1383;DHT22;685;47.196;11.880;2023-03-23T02:20:49;8.40;99.90
1383;DHT22;685;47.196;11.880;2023-03-23T02:23:45;8.30;99.90
1383;DHT22;685;47.196;11.880;2023-03-23T02:26:26;8.30;99.90
1383;DHT22;685;47.196;11.880;2023-03-23T02:32:03;8.20;99.90
1383;DHT22;685;47.196;11.880;2023-03-23T02:34:38;8.30;99.90
1383;DHT22;685;47.196;11.880;2023-03-23T02:37:11;8.40;99.90
1383;DHT22;685;47.196;11.880;2023-03-23T02:39:43;8.50;99.90
1383;DHT22;685;47.196;11.880;2023-03-23T02:42:14;8.10;99.90
1383;DHT22;685;47.196;11.880;2023-03-23T02:44:44;8.00;99.90
1383;DHT22;685;47.196;11.880;2023-03-23T02:47:14;8.10;99.90
1383;DHT22;685;47.196;11.880;2023-03-23T02:49:46;8.10;99.90
1383;DHT22;685;47.196;11.880;2023-03-23T02:52:18;8.20;99.90
1383;DHT22;685;47.196;11.880;2023-03-23T02:54:48;7.90;99.90
1383;DHT22;685;47.196;11.880;2023-03-23T02:57:16;7.90;99.90
1383;DHT22;685;47.196;11.880;2023-03-23T02:59:44;8.00;99.90
1383;DHT22;685;47.196;11.880;2023-03-23T03:02:13;8.10;99.90
1383;DHT22;685;47.196;11.880;2023-03-23T03:04:42;8.20;99.90
1383;DHT22;685;47.196;11.880;2023-03-23T03:07:29;8.20;99.90
1383;DHT22;685;47.196;11.880;2023-03-23T03:09:59;7.70;99.90
1383;DHT22;685;47.196;11.880;2023-03-23T03:12:34;7.40;99.90
1383;DHT22;685;47.196;11.880;2023-03-23T03:15:10;7.90;99.90
1383;DHT22;685;47.196;11.880;2023-03-23T03:17:42;8.10;99.90
1383;DHT22;685;47.196;11.880;2023-03-23T03:20:12;8.10;99.90
1383;DHT22;685;47.196;11.880;2023-03-23T03:22:44;8.00;99.90
1383;DHT22;685;47.196;11.880;2023-03-23T03:25:14;7.90;99.90
1383;DHT22;685;47.196;11.880;2023-03-23T03:27:44;7.40;99.90
1383;DHT22;685;47.196;11.880;2023-03-23T03:30:17;7.60;99.90
1383;DHT22;685;47.196;11.880;2023-03-23T03:32:48;7.80;99.90
1383;DHT22;685;47.196;11.880;2023-03-23T03:35:16;7.90;99.90
1383;DHT22;685;47.196;11.880;2023-03-23T03:37:45;8.00;99.90
1383;DHT22;685;47.196;11.880;2023-03-23T03:40:15;7.90;99.90
1383;DHT22;685;47.196;11.880;2023-03-23T03:42:44;7.80;99.90
1383;DHT22;685;47.196;11.880;2023-03-23T03:45:13;7.90;99.90
1383;DHT22;685;47.196;11.880;2023-03-23T03:47:40;8.00;99.90
1383;DHT22;685;47.196;11.880;2023-03-23T03:50:07;8.20;99.90
1383;DHT22;685;47.196;11.880;2023-03-23T03:52:36;8.20;99.90
1383;DHT22;685;47.196;11.880;2023-03-23T03:55:06;7.80;99.90
1383;DHT22;685;47.196;11.880;2023-03-23T03:57:33;7.50;99.90
1383;DHT22;685;47.196;11.880;2023-03-23T04:00:01;7.70;99.90
1383;DHT22;685;47.196;11.880;2023-03-23T04:02:38;7.70;99.90
1383;DHT22;685;47.196;11.880;2023-03-23T04:05:06;8.00;99.90
1383;DHT22;685;47.196;11.880;2023-03-23T04:07:34;7.90;99.90
1383;DHT22;685;47.196;11.880;2023-03-23T04:10:06;7.70;99.90
1383;DHT22;685;47.196;11.880;2023-03-23T04:12:34;7.60;99.90
1383;DHT22;685;47.196;11.880;2023-03-23T04:15:01;7.60;99.90
1383;DHT22;685;47.196;11.880;2023-03-23T04:17:28;7.60;99.90
1383;DHT22;685;47.196;11.880;2023-03-23T04:19:56;7.70;99.90
1383;DHT22;685;47.196;11.880;2023-03-23T04:22:25;7.20;99.90
1383;DHT22;685;47.196;11.880;2023-03-23T04:24:56;7.00;99.90
1383;DHT22;685;47.196;11.880;2023-03-23T04:27:25;7.00;99.90
1383;DHT22;685;47.196;11.880;2023-03-23T04:29:54;7.30;99.90
1383;DHT22;685;47.196;11.880;2023-03-23T04:32:21;7.50;99.90
1383;DHT22;685;47.196;11.880;2023-03-23T04:34:50;7.60;99.90
1383;DHT22;685;47.196;11.880;2023-03-23T04:37:17;7.80;99.90
1383;DHT22;685;47.196;11.880;2023-03-23T04:39:44;7.70;99.90
1383;DHT22;685;47.196;11.880;2023-03-23T04:42:11;7.70;99.90
1383;DHT22;685;47.196;11.880;2023-03-23T04:44:41;7.60;99.90
1383;DHT22;685;47.196;11.880;2023-03-23T04:47:09;7.70;99.90
1383;DHT22;685;47.196;11.880;2023-03-23T04:49:36;7.90;99.90
1383;DHT22;685;47.196;11.880;2023-03-23T04:52:03;7.70;99.90
1383;DHT22;685;47.196;11.880;2023-03-23T04:54:31;7.80;99.90
1383;DHT22;685;47.196;11.880;2023-03-23T04:56:58;7.80;99.90
1383;DHT22;685;47.196;11.880;2023-03-23T04:59:25;7.90;99.90
1383;DHT22;685;47.196;11.880;2023-03-23T05:01:55;7.60;99.90
1383;DHT22;685;47.196;11.880;2023-03-23T05:04:22;6.70;99.90
1383;DHT22;685;47.196;11.880;2023-03-23T05:06:50;6.90;99.90
1383;DHT22;685;47.196;11.880;2023-03-23T05:09:18;7.20;99.90
1383;DHT22;685;47.196;11.880;2023-03-23T05:11:45;7.40;99.90
1383;DHT22;685;47.196;11.880;2023-03-23T05:14:12;7.60;99.90
1383;DHT22;685;47.196;11.880;2023-03-23T05:16:39;7.60;99.90
1383;DHT22;685;47.196;11.880;2023-03-23T05:19:08;7.50;99.90
1383;DHT22;685;47.196;11.880;2023-03-23T05:21:35;7.60;99.90
1383;DHT22;685;47.196;11.880;2023-03-23T05:24:02;7.80;99.90
1383;DHT22;685;47.196;11.880;2023-03-23T05:26:29;7.50;99.90
1383;DHT22;685;47.196;11.880;2023-03-23T05:28:58;7.30;99.90
1383;DHT22;685;47.196;11.880;2023-03-23T05:31:25;7.60;99.90
1383;DHT22;685;47.196;11.880;2023-03-23T05:33:52;7.70;99.90
1383;DHT22;685;47.196;11.880;2023-03-23T05:36:20;7.50;99.90
1383;DHT22;685;47.196;11.880;2023-03-23T05:38:48;7.60;99.90
1383;DHT22;685;47.196;11.880;2023-03-23T05:41:15;7.60;99.90
1383;DHT22;685;47.196;11.880;2023-03-23T05:43:42;7.20;99.90
1383;DHT22;685;47.196;11.880;2023-03-23T05:46:09;7.40;99.90
1383;DHT22;685;47.196;11.880;2023-03-23T05:48:36;7.70;99.90
1383;DHT22;685;47.196;11.880;2023-03-23T05:51:04;7.80;99.90
1383;DHT22;685;47.196;11.880;2023-03-23T05:53:32;7.60;99.90
1383;DHT22;685;47.196;11.880;2023-03-23T05:56:01;7.40;99.90
1383;DHT22;685;47.196;11.880;2023-03-23T05:58:29;6.70;99.90
1383;DHT22;685;47.196;11.880;2023-03-23T06:00:57;6.50;99.90
1383;DHT22;685;47.196;11.880;2023-03-23T06:03:24;6.80;99.90
1383;DHT22;685;47.196;11.880;2023-03-23T06:05:51;7.00;99.90
1383;DHT22;685;47.196;11.880;2023-03-23T06:08:18;7.40;99.90
1383;DHT22;685;47.196;11.880;2023-03-23T06:10:46;7.60;99.90
1383;DHT22;685;47.196;11.880;2023-03-23T06:13:13;7.70;99.90
1383;DHT22;685;47.196;11.880;2023-03-23T06:15:40;7.70;99.90
1383;DHT22;685;47.196;11.880;2023-03-23T06:18:08;7.00;99.90
1383;DHT22;685;47.196;11.880;2023-03-23T06:20:35;6.50;99.90
1383;DHT22;685;47.196;11.880;2023-03-23T06:23:02;6.10;99.90
1383;DHT22;685;47.196;11.880;2023-03-23T06:25:30;6.20;99.90
1383;DHT22;685;47.196;11.880;2023-03-23T06:27:59;6.50;99.90
1383;DHT22;685;47.196;11.880;2023-03-23T06:30:27;7.00;99.90
1383;DHT22;685;47.196;11.880;2023-03-23T06:32:54;7.30;99.90
1383;DHT22;685;47.196;11.880;2023-03-23T06:35:21;7.70;99.90
1383;DHT22;685;47.196;11.880;2023-03-23T06:37:48;7.80;99.90
1383;DHT22;685;47.196;11.880;2023-03-23T06:40:16;7.90;99.90
1383;DHT22;685;47.196;11.880;2023-03-23T06:42:44;7.90;99.90
1383;DHT22;685;47.196;11.880;2023-03-23T06:45:12;8.10;99.90
1383;DHT22;685;47.196;11.880;2023-03-23T06:47:39;8.20;99.90
1383;DHT22;685;47.196;11.880;2023-03-23T06:50:07;8.20;99.90
1383;DHT22;685;47.196;11.880;2023-03-23T06:52:34;8.20;99.90
1383;DHT22;685;47.196;11.880;2023-03-23T06:55:01;8.30;99.90
1383;DHT22;685;47.196;11.880;2023-03-23T06:57:28;8.50;99.90
1383;DHT22;685;47.196;11.880;2023-03-23T06:59:55;8.40;99.90
1383;DHT22;685;47.196;11.880;2023-03-23T07:02:23;8.50;99.90
1383;DHT22;685;47.196;11.880;2023-03-23T07:04:51;8.50;99.90
1383;DHT22;685;47.196;11.880;2023-03-23T07:07:19;8.70;99.90
1383;DHT22;685;47.196;11.880;2023-03-23T07:09:46;8.70;99.90
1383;DHT22;685;47.196;11.880;2023-03-23T07:12:13;8.60;99.90
1383;DHT22;685;47.196;11.880;2023-03-23T07:14:41;8.60;99.90
1383;DHT22;685;47.196;11.880;2023-03-23T07:17:08;8.60;99.90
1383;DHT22;685;47.196;11.880;2023-03-23T07:19:36;8.50;99.90
1383;DHT22;685;47.196;11.880;2023-03-23T07:22:04;8.80;99.90
1383;DHT22;685;47.196;11.880;2023-03-23T07:24:31;8.80;99.90
1383;DHT22;685;47.196;11.880;2023-03-23T07:26:58;8.80;99.90
1383;DHT22;685;47.196;11.880;2023-03-23T07:29:25;9.00;99.90
1383;DHT22;685;47.196;11.880;2023-03-23T07:31:52;9.10;99.90
1383;DHT22;685;47.196;11.880;2023-03-23T07:34:19;9.20;99.90
1383;DHT22;685;47.196;11.880;2023-03-23T07:36:48;9.20;99.90
1383;DHT22;685;47.196;11.880;2023-03-23T07:39:15;8.90;99.90
1383;DHT22;685;47.196;11.880;2023-03-23T07:41:42;8.90;99.90
1383;DHT22;685;47.196;11.880;2023-03-23T07:44:09;9.00;99.90
1383;DHT22;685;47.196;11.880;2023-03-23T07:46:36;9.20;99.90
1383;DHT22;685;47.196;11.880;2023-03-23T07:49:04;9.40;99.90
1383;DHT22;685;47.196;11.880;2023-03-23T07:51:31;9.50;99.90
1383;DHT22;685;47.196;11.880;2023-03-23T07:54:00;9.60;99.90
1383;DHT22;685;47.196;11.880;2023-03-23T07:56:28;9.60;99.90
1383;DHT22;685;47.196;11.880;2023-03-23T07:58:55;9.40;99.90
1383;DHT22;685;47.196;11.880;2023-03-23T08:01:22;9.30;99.90
1383;DHT22;685;47.196;11.880;2023-03-23T08:03:49;9.20;99.90
1383;DHT22;685;47.196;11.880;2023-03-23T08:06:16;9.10;99.90
1383;DHT22;685;47.196;11.880;2023-03-23T08:08:43;9.20;99.90
1383;DHT22;685;47.196;11.880;2023-03-23T08:11:12;9.20;99.90
1383;DHT22;685;47.196;11.880;2023-03-23T08:13:40;9.30;99.90
1383;DHT22;685;47.196;11.880;2023-03-23T08:16:08;9.30;99.90
1383;DHT22;685;47.196;11.880;2023-03-23T08:18:35;9.50;99.90
1383;DHT22;685;47.196;11.880;2023-03-23T08:21:03;9.60;99.90
1383;DHT22;685;47.196;11.880;2023-03-23T08:23:30;9.90;99.90
1383;DHT22;685;47.196;11.880;2023-03-23T08:25:58;9.80;99.90
1383;DHT22;685;47.196;11.880;2023-03-23T08:28:26;9.80;99.90
1383;DHT22;685;47.196;11.880;2023-03-23T08:30:53;9.90;99.90
1383;DHT22;685;47.196;11.880;2023-03-23T08:33:20;10.00;99.90
1383;DHT22;685;47.196;11.880;2023-03-23T08:35:55;10.00;99.90
1383;DHT22;685;47.196;11.880;2023-03-23T08:38:23;10.00;99.90
1383;DHT22;685;47.196;11.880;2023-03-23T08:40:50;10.10;99.90
1383;DHT22;685;47.196;11.880;2023-03-23T08:43:18;10.20;99.90
1383;DHT22;685;47.196;11.880;2023-03-23T08:45:46;10.30;99.90
1383;DHT22;685;47.196;11.880;2023-03-23T08:48:13;10.50;99.90
1383;DHT22;685;47.196;11.880;2023-03-23T08:50:40;10.70;99.90
1383;DHT22;685;47.196;11.880;2023-03-23T08:53:07;10.80;99.90
1383;DHT22;685;47.196;11.880;2023-03-23T08:55:34;10.90;99.90
1383;DHT22;685;47.196;11.880;2023-03-23T08:58:02;11.10;99.90
1383;DHT22;685;47.196;11.880;2023-03-23T09:00:29;11.20;99.90
1383;DHT22;685;47.196;11.880;2023-03-23T09:02:58;11.30;99.90
1383;DHT22;685;47.196;11.880;2023-03-23T09:05:26;11.40;99.90
1383;DHT22;685;47.196;11.880;2023-03-23T09:07:56;11.40;99.90
1383;DHT22;685;47.196;11.880;2023-03-23T09:10:24;11.40;99.90
1383;DHT22;685;47.196;11.880;2023-03-23T09:12:52;11.40;99.90
1383;DHT22;685;47.196;11.880;2023-03-23T09:15:20;11.40;99.90
1383;DHT22;685;47.196;11.880;2023-03-23T09:17:49;11.50;99.90
1383;DHT22;685;47.196;11.880;2023-03-23T09:20:20;11.50;99.90
1383;DHT22;685;47.196;11.880;2023-03-23T09:22:49;11.70;99.90
1383;DHT22;685;47.196;11.880;2023-03-23T09:25:19;11.70;99.90
1383;DHT22;685;47.196;11.880;2023-03-23T09:27:48;11.70;99.90
1383;DHT22;685;47.196;11.880;2023-03-23T09:30:18;11.80;99.90
1383;DHT22;685;47.196;11.880;2023-03-23T09:32:46;11.90;99.90
1383;DHT22;685;47.196;11.880;2023-03-23T09:35:16;12.00;99.90
1383;DHT22;685;47.196;11.880;2023-03-23T09:37:44;12.00;99.90
1383;DHT22;685;47.196;11.880;2023-03-23T09:40:14;12.00;99.90
1383;DHT22;685;47.196;11.880;2023-03-23T09:45:56;12.10;99.90
1383;DHT22;685;47.196;11.880;2023-03-23T09:48:37;12.10;99.90
1383;DHT22;685;47.196;11.880;2023-03-23T09:51:17;12.20;99.90
1383;DHT22;685;47.196;11.880;2023-03-23T09:53:49;12.20;99.90
1383;DHT22;685;47.196;11.880;2023-03-23T09:56:18;12.40;99.90
1383;DHT22;685;47.196;11.880;2023-03-23T09:58:51;12.40;99.90
1383;DHT22;685;47.196;11.880;2023-03-23T10:01:23;12.50;99.90
1383;DHT22;685;47.196;11.880;2023-03-23T10:03:59;12.60;99.90
1383;DHT22;685;47.196;11.880;2023-03-23T10:06:30;12.60;99.90
1383;DHT22;685;47.196;11.880;2023-03-23T10:08:59;12.60;99.90
1383;DHT22;685;47.196;11.880;2023-03-23T10:11:32;12.70;99.90
1383;DHT22;685;47.196;11.880;2023-03-23T10:14:12;12.70;99.90
1383;DHT22;685;47.196;11.880;2023-03-23T10:16:49;12.70;99.90
1383;DHT22;685;47.196;11.880;2023-03-23T10:19:20;12.70;99.90
1383;DHT22;685;47.196;11.880;2023-03-23T10:21:55;12.70;99.90
1383;DHT22;685;47.196;11.880;2023-03-23T10:24:29;12.70;99.90
1383;DHT22;685;47.196;11.880;2023-03-23T10:27:02;12.80;99.90
1383;DHT22;685;47.196;11.880;2023-03-23T10:29:33;12.80;99.90
1383;DHT22;685;47.196;11.880;2023-03-23T10:32:08;12.90;99.90
1383;DHT22;685;47.196;11.880;2023-03-23T10:34:42;12.90;99.90
1383;DHT22;685;47.196;11.880;2023-03-23T10:37:13;13.00;99.90
1383;DHT22;685;47.196;11.880;2023-03-23T10:39:46;13.00;99.90
1383;DHT22;685;47.196;11.880;2023-03-23T10:42:22;13.20;99.90
1383;DHT22;685;47.196;11.880;2023-03-23T10:44:49;13.20;99.90
1383;DHT22;685;47.196;11.880;2023-03-23T10:47:16;13.20;99.90
1383;DHT22;685;47.196;11.880;2023-03-23T10:49:46;13.30;99.90
1383;DHT22;685;47.196;11.880;2023-03-23T10:52:27;13.50;99.90
1383;DHT22;685;47.196;11.880;2023-03-23T10:54:57;13.70;99.90
1383;DHT22;685;47.196;11.880;2023-03-23T10:57:25;13.60;99.90
1383;DHT22;685;47.196;11.880;2023-03-23T10:59:59;13.80;99.90
1383;DHT22;685;47.196;11.880;2023-03-23T11:02:28;13.90;99.90
1383;DHT22;685;47.196;11.880;2023-03-23T11:05:00;14.00;99.90
1383;DHT22;685;47.196;11.880;2023-03-23T11:07:32;14.00;99.90
1383;DHT22;685;47.196;11.880;2023-03-23T11:10:07;14.10;99.90
1383;DHT22;685;47.196;11.880;2023-03-23T11:12:56;14.10;99.90
1383;DHT22;685;47.196;11.880;2023-03-23T11:15:28;14.20;99.90
1383;DHT22;685;47.196;11.880;2023-03-23T11:18:01;14.00;99.90
1383;DHT22;685;47.196;11.880;2023-03-23T11:20:32;14.00;99.90
1383;DHT22;685;47.196;11.880;2023-03-23T11:23:11;14.10;99.90
1383;DHT22;685;47.196;11.880;2023-03-23T11:26:09;14.00;99.90
1383;DHT22;685;47.196;11.880;2023-03-23T11:28:46;14.30;99.90
1383;DHT22;685;47.196;11.880;2023-03-23T11:31:21;14.20;99.90
1383;DHT22;685;47.196;11.880;2023-03-23T11:33:59;14.40;99.90
1383;DHT22;685;47.196;11.880;2023-03-23T11:36:36;14.50;99.90
1383;DHT22;685;47.196;11.880;2023-03-23T11:39:22;14.40;99.90
1383;DHT22;685;47.196;11.880;2023-03-23T11:41:51;14.50;99.90
1383;DHT22;685;47.196;11.880;2023-03-23T11:44:22;14.60;99.90
1383;DHT22;685;47.196;11.880;2023-03-23T11:47:04;14.80;99.90
1383;DHT22;685;47.196;11.880;2023-03-23T11:49:42;15.00;99.90
1383;DHT22;685;47.196;11.880;2023-03-23T11:52:16;14.90;99.90
1383;DHT22;685;47.196;11.880;2023-03-23T11:55:03;14.90;99.90
1383;DHT22;685;47.196;11.880;2023-03-23T11:57:35;14.80;99.90
1383;DHT22;685;47.196;11.880;2023-03-23T12:00:10;14.70;99.90
1383;DHT22;685;47.196;11.880;2023-03-23T12:05:38;14.90;99.90
1383;DHT22;685;47.196;11.880;2023-03-23T12:08:22;14.80;99.90
1383;DHT22;685;47.196;11.880;2023-03-23T12:10:57;14.80;99.90
1383;DHT22;685;47.196;11.880;2023-03-23T12:13:42;14.80;99.90
1383;DHT22;685;47.196;11.880;2023-03-23T12:16:22;14.80;99.90
1383;DHT22;685;47.196;11.880;2023-03-23T12:18:56;14.80;99.90
1383;DHT22;685;47.196;11.880;2023-03-23T12:21:32;14.80;99.90
1383;DHT22;685;47.196;11.880;2023-03-23T12:24:08;14.80;99.90
1383;DHT22;685;47.196;11.880;2023-03-23T12:26:47;14.80;99.90
1383;DHT22;685;47.196;11.880;2023-03-23T12:32:41;14.80;99.90
1383;DHT22;685;47.196;11.880;2023-03-23T12:35:19;14.90;99.90
1383;DHT22;685;47.196;11.880;2023-03-23T12:37:56;15.00;99.90
1383;DHT22;685;47.196;11.880;2023-03-23T12:40:46;15.20;99.90
1383;DHT22;685;47.196;11.880;2023-03-23T12:43:21;14.90;99.90
1383;DHT22;685;47.196;11.880;2023-03-23T12:46:01;14.70;99.90
1383;DHT22;685;47.196;11.880;2023-03-23T12:48:33;14.90;99.90
1383;DHT22;685;47.196;11.880;2023-03-23T12:51:10;14.80;99.90
1383;DHT22;685;47.196;11.880;2023-03-23T12:53:47;15.00;99.90
1383;DHT22;685;47.196;11.880;2023-03-23T12:56:18;15.00;99.90
1383;DHT22;685;47.196;11.880;2023-03-23T12:58:53;14.90;99.90
1383;DHT22;685;47.196;11.880;2023-03-23T13:01:23;15.00;99.90
1383;DHT22;685;47.196;11.880;2023-03-23T13:03:56;15.30;99.90
1383;DHT22;685;47.196;11.880;2023-03-23T13:06:28;15.40;99.90
1383;DHT22;685;47.196;11.880;2023-03-23T13:08:59;15.50;99.90
1383;DHT22;685;47.196;11.880;2023-03-23T13:11:32;15.50;99.90
1383;DHT22;685;47.196;11.880;2023-03-23T13:16:57;15.70;99.90
1383;DHT22;685;47.196;11.880;2023-03-23T13:19:31;15.80;99.90
1383;DHT22;685;47.196;11.880;2023-03-23T13:22:04;15.90;99.90
1383;DHT22;685;47.196;11.880;2023-03-23T13:24:36;16.10;99.90
1383;DHT22;685;47.196;11.880;2023-03-23T13:27:06;16.00;99.90
1383;DHT22;685;47.196;11.880;2023-03-23T13:29:43;16.10;99.90
1383;DHT22;685;47.196;11.880;2023-03-23T13:32:15;16.10;99.90
1383;DHT22;685;47.196;11.880;2023-03-23T13:34:42;16.00;99.90
1383;DHT22;685;47.196;11.880;2023-03-23T13:37:12;15.80;99.90
1383;DHT22;685;47.196;11.880;2023-03-23T13:39:50;16.00;99.90
1383;DHT22;685;47.196;11.880;2023-03-23T13:42:20;16.00;99.90
1383;DHT22;685;47.196;11.880;2023-03-23T13:45:19;15.90;99.90
1383;DHT22;685;47.196;11.880;2023-03-23T13:47:47;15.70;99.90
1383;DHT22;685;47.196;11.880;2023-03-23T13:50:26;15.90;99.90
1383;DHT22;685;47.196;11.880;2023-03-23T13:52:58;15.90;99.90
1383;DHT22;685;47.196;11.880;2023-03-23T13:55:40;15.70;99.90
1383;DHT22;685;47.196;11.880;2023-03-23T13:58:21;15.90;99.90
1383;DHT22;685;47.196;11.880;2023-03-23T14:01:03;16.20;99.90
1383;DHT22;685;47.196;11.880;2023-03-23T14:03:39;16.30;99.90
1383;DHT22;685;47.196;11.880;2023-03-23T14:06:12;16.40;99.90
1383;DHT22;685;47.196;11.880;2023-03-23T14:08:42;16.10;99.90
1383;DHT22;685;47.196;11.880;2023-03-23T14:11:15;15.80;99.90
1383;DHT22;685;47.196;11.880;2023-03-23T14:13:45;15.90;99.90
1383;DHT22;685;47.196;11.880;2023-03-23T14:16:19;15.90;99.90
1383;DHT22;685;47.196;11.880;2023-03-23T14:18:53;16.50;99.90
1383;DHT22;685;47.196;11.880;2023-03-23T14:21:32;16.50;99.90
1383;DHT22;685;47.196;11.880;2023-03-23T14:24:01;16.50;99.90
1383;DHT22;685;47.196;11.880;2023-03-23T14:26:28;16.70;99.90
1383;DHT22;685;47.196;11.880;2023-03-23T14:28:55;16.60;99.90
1383;DHT22;685;47.196;11.880;2023-03-23T14:31:26;16.60;99.90
1383;DHT22;685;47.196;11.880;2023-03-23T14:33:55;16.70;99.90
1383;DHT22;685;47.196;11.880;2023-03-23T14:36:23;16.90;99.90
1383;DHT22;685;47.196;11.880;2023-03-23T14:39:01;16.60;99.90
1383;DHT22;685;47.196;11.880;2023-03-23T14:41:30;16.80;99.90
1383;DHT22;685;47.196;11.880;2023-03-23T14:43:59;16.60;99.90
1383;DHT22;685;47.196;11.880;2023-03-23T14:46:29;16.90;99.90
1383;DHT22;685;47.196;11.880;2023-03-23T14:49:00;16.90;99.90
1383;DHT22;685;47.196;11.880;2023-03-23T14:51:27;17.00;99.90
1383;DHT22;685;47.196;11.880;2023-03-23T14:53:54;16.90;99.90
1383;DHT22;685;47.196;11.880;2023-03-23T14:56:23;17.00;99.90
1383;DHT22;685;47.196;11.880;2023-03-23T14:58:53;17.10;99.90
1383;DHT22;685;47.196;11.880;2023-03-23T15:01:24;17.00;99.90
1383;DHT22;685;47.196;11.880;2023-03-23T15:03:57;17.20;99.90
1383;DHT22;685;47.196;11.880;2023-03-23T15:06:27;17.20;99.90
1383;DHT22;685;47.196;11.880;2023-03-23T15:08:56;17.10;99.90
1383;DHT22;685;47.196;11.880;2023-03-23T15:11:27;17.10;99.90
1383;DHT22;685;47.196;11.880;2023-03-23T15:13:57;17.00;99.90
1383;DHT22;685;47.196;11.880;2023-03-23T15:16:28;16.90;99.90
1383;DHT22;685;47.196;11.880;2023-03-23T15:18:59;16.90;99.90
1383;DHT22;685;47.196;11.880;2023-03-23T15:21:29;16.40;99.90
1383;DHT22;685;47.196;11.880;2023-03-23T15:23:57;16.20;99.90
1383;DHT22;685;47.196;11.880;2023-03-23T15:26:32;16.40;99.90
1383;DHT22;685;47.196;11.880;2023-03-23T15:29:14;16.40;99.90
1383;DHT22;685;47.196;11.880;2023-03-23T15:31:43;16.40;99.90
1383;DHT22;685;47.196;11.880;2023-03-23T15:34:24;16.70;99.90
1383;DHT22;685;47.196;11.880;2023-03-23T15:36:56;16.40;99.90
1383;DHT22;685;47.196;11.880;2023-03-23T15:39:24;16.40;99.90
1383;DHT22;685;47.196;11.880;2023-03-23T15:41:52;16.40;99.90
1383;DHT22;685;47.196;11.880;2023-03-23T15:44:25;16.30;99.90
1383;DHT22;685;47.196;11.880;2023-03-23T15:47:01;16.20;99.90
1383;DHT22;685;47.196;11.880;2023-03-23T15:49:30;16.10;99.90
1383;DHT22;685;47.196;11.880;2023-03-23T15:51:57;16.20;99.90
1383;DHT22;685;47.196;11.880;2023-03-23T15:54:29;16.30;99.90
1383;DHT22;685;47.196;11.880;2023-03-23T15:56:57;16.20;99.90
1383;DHT22;685;47.196;11.880;2023-03-23T15:59:24;16.40;99.90
1383;DHT22;685;47.196;11.880;2023-03-23T16:01:51;16.30;99.90
1383;DHT22;685;47.196;11.880;2023-03-23T16:04:18;16.30;99.90
1383;DHT22;685;47.196;11.880;2023-03-23T16:06:49;16.10;99.90
1383;DHT22;685;47.196;11.880;2023-03-23T16:09:19;16.00;99.90
1383;DHT22;685;47.196;11.880;2023-03-23T16:11:46;16.00;99.90
1383;DHT22;685;47.196;11.880;2023-03-23T16:14:13;15.90;99.90
1383;DHT22;685;47.196;11.880;2023-03-23T16:16:43;15.80;99.90
1383;DHT22;685;47.196;11.880;2023-03-23T16:19:11;15.70;99.90
1383;DHT22;685;47.196;11.880;2023-03-23T16:21:39;15.60;99.90
1383;DHT22;685;47.196;11.880;2023-03-23T16:24:08;15.50;99.90
1383;DHT22;685;47.196;11.880;2023-03-23T16:26:35;15.40;99.90
1383;DHT22;685;47.196;11.880;2023-03-23T16:29:09;15.30;99.90
1383;DHT22;685;47.196;11.880;2023-03-23T16:31:37;15.30;99.90
1383;DHT22;685;47.196;11.880;2023-03-23T16:34:03;15.20;99.90
1383;DHT22;685;47.196;11.880;2023-03-23T16:36:30;15.20;99.90
1383;DHT22;685;47.196;11.880;2023-03-23T16:38:57;15.20;99.90
1383;DHT22;685;47.196;11.880;2023-03-23T16:41:26;15.20;99.90
1383;DHT22;685;47.196;11.880;2023-03-23T16:43:53;15.10;99.90
1383;DHT22;685;47.196;11.880;2023-03-23T16:46:19;15.00;99.90
1383;DHT22;685;47.196;11.880;2023-03-23T16:48:46;14.90;99.90